createdAt,value
2023-02-14T00:00:53.149Z,14.10
2023-02-14T00:03:20.702Z,12.57
2023-02-14T00:05:48.196Z,14.50
2023-02-14T00:08:16.361Z,12.00
2023-02-14T00:10:43.877Z,13.30
2023-02-14T00:13:11.455Z,13.73
2023-02-14T00:15:38.968Z,13.30
2023-02-14T00:18:06.610Z,13.13
2023-02-14T00:20:34.105Z,13.63
2023-02-14T00:23:01.644Z,12.20
2023-02-14T00:25:29.181Z,13.67
2023-02-14T00:27:56.772Z,13.70
2023-02-14T00:30:24.463Z,11.43
2023-02-14T00:32:52.140Z,13.37
2023-02-14T00:35:19.714Z,14.73
2023-02-14T00:37:47.285Z,12.50
2023-02-14T00:40:15.763Z,13.20
2023-02-14T00:42:43.478Z,15.50
2023-02-14T00:45:11.109Z,15.77
2023-02-14T00:47:38.674Z,10.60
2023-02-14T00:50:06.484Z,12.60
2023-02-14T00:52:34.106Z,13.27
2023-02-14T00:55:01.632Z,12.27
2023-02-14T00:57:29.242Z,14.37
2023-02-14T00:59:56.811Z,15.47
2023-02-14T01:02:24.421Z,14.13
2023-02-14T01:04:51.980Z,12.93
2023-02-14T01:07:19.645Z,9.97
2023-02-14T01:09:47.209Z,11.93
2023-02-14T01:12:14.972Z,12.33
2023-02-14T01:14:42.548Z,13.20
2023-02-14T01:17:10.090Z,12.43
2023-02-14T01:19:37.638Z,12.47
2023-02-14T01:22:05.238Z,13.57
2023-02-14T01:24:32.750Z,13.23
2023-02-14T01:27:00.362Z,12.70
2023-02-14T01:29:27.970Z,13.07
2023-02-14T01:31:55.629Z,10.73
2023-02-14T01:34:23.239Z,11.67
2023-02-14T01:36:50.830Z,11.83
2023-02-14T01:39:18.379Z,12.20
2023-02-14T01:41:47.248Z,9.37
2023-02-14T01:44:14.718Z,11.30
2023-02-14T01:46:43.682Z,11.47
2023-02-14T01:49:14.268Z,16.03
2023-02-14T01:51:44.571Z,11.27
2023-02-14T01:54:12.804Z,11.63
2023-02-14T01:56:44.337Z,12.23
2023-02-14T01:59:13.474Z,11.80
2023-02-14T02:01:41.568Z,11.17
2023-02-14T02:04:18.392Z,11.10
2023-02-14T02:06:48.159Z,10.37
2023-02-14T02:09:21.815Z,12.83
2023-02-14T02:11:49.513Z,11.77
2023-02-14T02:14:21.142Z,11.13
2023-02-14T02:17:07.411Z,13.23
2023-02-14T02:19:55.208Z,13.57
2023-02-14T02:22:41.325Z,11.23
2023-02-14T02:25:21.600Z,11.73
2023-02-14T02:28:03.518Z,14.50
2023-02-14T02:30:46.169Z,11.73
2023-02-14T02:33:29.004Z,12.07
2023-02-14T02:35:56.590Z,10.80
2023-02-14T02:38:43.027Z,10.80
2023-02-14T02:41:16.735Z,13.43
2023-02-14T02:44:16.838Z,12.20
2023-02-14T02:46:49.236Z,13.90
2023-02-14T02:49:25.831Z,14.63
2023-02-14T02:51:56.110Z,14.60
2023-02-14T02:54:30.587Z,17.23
2023-02-14T02:57:00.300Z,15.80
2023-02-14T02:59:30.403Z,13.93
2023-02-14T03:02:10.172Z,12.20
2023-02-14T03:04:40.363Z,14.77
2023-02-14T03:07:08.494Z,17.47
2023-02-14T03:09:35.961Z,15.43
2023-02-14T03:12:18.609Z,12.87
2023-02-14T03:15:04.788Z,13.30
2023-02-14T03:17:37.349Z,15.60
2023-02-14T03:20:04.916Z,15.00
2023-02-14T03:22:42.106Z,12.87
2023-02-14T03:25:32.428Z,13.03
2023-02-14T03:28:03.533Z,13.80
2023-02-14T03:30:37.206Z,14.00
2023-02-14T03:33:07.061Z,14.83
2023-02-14T03:35:37.606Z,14.53
2023-02-14T03:38:10.536Z,14.57
2023-02-14T03:40:46.781Z,13.50
2023-02-14T03:43:19.841Z,11.63
2023-02-14T03:45:50.003Z,13.53
2023-02-14T03:48:20.224Z,14.97
2023-02-14T03:50:49.599Z,13.50
2023-02-14T03:53:19.553Z,12.17
2023-02-14T03:55:55.012Z,13.10
2023-02-14T03:58:28.883Z,12.17
2023-02-14T04:00:59.806Z,14.70
2023-02-14T04:03:29.158Z,15.17
2023-02-14T04:05:56.883Z,15.37
2023-02-14T04:08:25.883Z,15.57
2023-02-14T04:10:53.846Z,16.13
2023-02-14T04:13:21.682Z,14.60
2023-02-14T04:15:49.269Z,13.47
2023-02-14T04:18:16.872Z,13.97
2023-02-14T04:20:44.385Z,11.93
2023-02-14T04:23:12.009Z,14.90
2023-02-14T04:25:39.519Z,15.13
2023-02-14T04:28:07.060Z,15.70
2023-02-14T04:30:34.624Z,14.07
2023-02-14T04:33:02.232Z,16.93
2023-02-14T04:35:29.705Z,18.53
2023-02-14T04:37:57.318Z,16.77
2023-02-14T04:40:24.850Z,14.93
2023-02-14T04:42:52.440Z,15.97
2023-02-14T04:45:20.160Z,15.50
2023-02-14T04:47:47.746Z,14.97
2023-02-14T04:50:15.431Z,14.17
2023-02-14T04:52:42.993Z,13.77
2023-02-14T04:55:10.575Z,15.47
2023-02-14T04:57:38.126Z,13.23
2023-02-14T05:00:05.933Z,15.90
2023-02-14T05:02:33.597Z,15.20
2023-02-14T05:05:01.196Z,15.50
2023-02-14T05:07:28.894Z,16.67
2023-02-14T05:09:56.402Z,19.40
2023-02-14T05:12:24.100Z,22.43
2023-02-14T05:14:51.616Z,18.87
2023-02-14T05:17:19.440Z,19.33
2023-02-14T05:19:46.953Z,18.37
2023-02-14T05:22:15.827Z,16.47
2023-02-14T05:24:44.333Z,17.83
2023-02-14T05:27:11.931Z,18.80
2023-02-14T05:29:39.469Z,19.00
2023-02-14T05:32:07.091Z,20.80
2023-02-14T05:34:34.802Z,22.77
2023-02-14T05:37:02.379Z,20.33
2023-02-14T05:39:30.182Z,20.97
2023-02-14T05:41:59.342Z,26.13
2023-02-14T05:44:26.993Z,22.17
2023-02-14T05:46:54.563Z,21.87
2023-02-14T05:49:22.200Z,22.27
2023-02-14T05:51:50.319Z,22.63
2023-02-14T05:54:17.852Z,29.13
2023-02-14T05:56:45.421Z,25.13
2023-02-14T05:59:12.977Z,23.67
2023-02-14T06:01:40.578Z,24.67
2023-02-14T06:04:08.182Z,24.80
2023-02-14T06:06:36.822Z,22.80
2023-02-14T06:09:04.554Z,23.30
2023-02-14T06:11:32.120Z,23.43
2023-02-14T06:13:59.606Z,28.10
2023-02-14T06:16:27.160Z,27.10
2023-02-14T06:18:54.757Z,23.13
2023-02-14T06:21:22.528Z,26.17
2023-02-14T06:23:50.090Z,26.53
2023-02-14T06:26:17.661Z,25.47
2023-02-14T06:28:45.223Z,25.50
2023-02-14T06:31:18.995Z,27.40
2023-02-14T06:33:46.637Z,26.50
2023-02-14T06:36:14.210Z,28.23
2023-02-14T06:38:41.944Z,26.80
2023-02-14T06:41:10.680Z,28.50
2023-02-14T06:43:38.356Z,27.23
2023-02-14T06:46:06.099Z,28.37
2023-02-14T06:48:33.685Z,28.80
2023-02-14T06:51:01.415Z,33.97
2023-02-14T06:53:29.338Z,29.27
2023-02-14T06:55:56.864Z,30.37
2023-02-14T06:58:24.369Z,30.93
2023-02-14T07:00:51.872Z,30.73
2023-02-14T07:03:19.429Z,28.33
2023-02-14T07:05:46.947Z,28.73
2023-02-14T07:08:14.525Z,31.23
2023-02-14T07:10:42.095Z,29.07
2023-02-14T07:13:09.671Z,28.20
2023-02-14T07:15:37.192Z,29.50
2023-02-14T07:18:04.851Z,29.67
2023-02-14T07:20:32.384Z,33.80
2023-02-14T07:22:59.891Z,31.27
2023-02-14T07:25:27.534Z,29.53
2023-02-14T07:27:55.171Z,31.53
2023-02-14T07:30:22.801Z,33.27
2023-02-14T07:32:50.361Z,30.53
2023-02-14T07:35:17.925Z,32.73
2023-02-14T07:37:45.445Z,30.23
2023-02-14T07:40:15.300Z,32.37
2023-02-14T07:42:43.707Z,29.63
2023-02-14T07:45:21.314Z,36.37
2023-02-14T07:47:51.009Z,40.83
2023-02-14T07:50:18.672Z,34.53
2023-02-14T07:52:46.383Z,30.83
2023-02-14T07:55:14.166Z,34.70
2023-02-14T07:57:41.762Z,35.50
2023-02-14T08:00:09.823Z,32.90
2023-02-14T08:02:37.375Z,37.30
2023-02-14T08:05:05.058Z,33.50
2023-02-14T08:07:32.734Z,35.87
2023-02-14T08:10:00.234Z,36.70
2023-02-14T08:12:27.813Z,31.63
2023-02-14T08:14:55.360Z,36.63
2023-02-14T08:17:23.174Z,37.30
2023-02-14T08:19:50.669Z,32.87
2023-02-14T08:22:20.635Z,36.10
2023-02-14T08:24:48.172Z,32.93
2023-02-14T08:27:15.707Z,34.63
2023-02-14T08:29:43.350Z,33.23
2023-02-14T08:32:11.087Z,37.80
2023-02-14T08:34:38.743Z,34.10
2023-02-14T08:37:06.325Z,30.10
2023-02-14T08:39:34.094Z,34.43
2023-02-14T08:42:01.726Z,32.53
2023-02-14T08:44:29.325Z,34.63
2023-02-14T08:46:56.975Z,33.07
2023-02-14T08:49:24.679Z,32.80
2023-02-14T08:51:52.204Z,31.33
2023-02-14T08:54:19.779Z,32.80
2023-02-14T08:56:47.318Z,34.40
2023-02-14T08:59:14.986Z,33.63
2023-02-14T09:01:42.490Z,31.27
2023-02-14T09:04:10.206Z,31.57
2023-02-14T09:06:38.626Z,31.80
2023-02-14T09:09:06.771Z,28.10
2023-02-14T09:11:34.332Z,30.20
2023-02-14T09:14:01.916Z,30.63
2023-02-14T09:16:29.528Z,27.13
2023-02-14T09:18:57.207Z,30.90
2023-02-14T09:21:26.419Z,27.50
2023-02-14T09:23:53.997Z,28.03
2023-02-14T09:26:21.704Z,26.43
2023-02-14T09:28:49.515Z,30.30
2023-02-14T09:31:18.952Z,28.80
2023-02-14T09:33:47.756Z,28.70
2023-02-14T09:36:15.305Z,30.80
2023-02-14T09:38:43.142Z,30.20
2023-02-14T09:41:16.784Z,25.97
2023-02-14T09:43:56.704Z,27.60
2023-02-14T09:46:25.453Z,32.93
2023-02-14T09:48:54.018Z,26.80
2023-02-14T09:51:23.324Z,30.33
2023-02-14T09:53:52.567Z,26.97
2023-02-14T09:56:26.077Z,27.77
2023-02-14T09:58:59.528Z,30.37
2023-02-14T10:01:28.866Z,24.40
2023-02-14T10:04:03.767Z,25.77
2023-02-14T10:06:46.894Z,28.57
2023-02-14T10:09:33.992Z,25.93
2023-02-14T10:12:03.420Z,31.40
2023-02-14T10:14:32.688Z,28.73
2023-02-14T10:17:03.208Z,30.93
2023-02-14T10:19:34.643Z,29.13
2023-02-14T10:22:04.100Z,27.07
2023-02-14T10:24:42.748Z,28.70
2023-02-14T10:27:11.596Z,29.33
2023-02-14T10:29:39.240Z,26.13
2023-02-14T10:32:10.979Z,26.50
2023-02-14T10:34:48.822Z,29.10
2023-02-14T10:37:25.609Z,24.07
2023-02-14T10:39:59.078Z,29.00
2023-02-14T10:42:34.612Z,26.33
2023-02-14T10:45:20.850Z,27.13
2023-02-14T10:47:57.312Z,27.27
2023-02-14T10:50:24.912Z,35.30
2023-02-14T10:52:55.490Z,27.67
2023-02-14T10:55:38.749Z,27.07
2023-02-14T10:58:07.513Z,25.87
2023-02-14T11:00:38.474Z,26.43
2023-02-14T11:03:08.043Z,26.23
2023-02-14T11:05:37.377Z,24.80
2023-02-14T11:08:13.903Z,26.13
2023-02-14T11:10:41.537Z,27.63
2023-02-14T11:13:28.059Z,23.30
2023-02-14T11:15:59.317Z,25.70
2023-02-14T11:18:28.000Z,27.70
2023-02-14T11:21:06.762Z,26.43
2023-02-14T11:23:35.513Z,24.70
2023-02-14T11:26:04.946Z,26.77
2023-02-14T11:28:32.667Z,22.33
2023-02-14T11:31:00.907Z,24.37
2023-02-14T11:33:55.011Z,25.37
2023-02-14T11:36:23.318Z,25.03
2023-02-14T11:38:59.271Z,20.30
2023-02-14T11:41:26.852Z,26.63
2023-02-14T11:44:10.150Z,25.50
2023-02-14T11:46:44.323Z,28.57
2023-02-14T11:49:31.177Z,25.50
2023-02-14T11:52:00.447Z,25.73
2023-02-14T11:54:34.221Z,22.40
2023-02-14T11:57:17.868Z,26.43
2023-02-14T11:59:47.755Z,25.83
2023-02-14T12:02:21.723Z,23.00
2023-02-14T12:04:50.501Z,26.20
2023-02-14T12:07:20.075Z,20.80
2023-02-14T12:09:48.608Z,23.47
2023-02-14T12:12:20.713Z,23.23
2023-02-14T12:14:49.928Z,24.33
2023-02-14T12:17:23.250Z,23.10
2023-02-14T12:19:56.740Z,24.80
2023-02-14T12:22:29.827Z,27.70
2023-02-14T12:25:06.449Z,28.47
2023-02-14T12:27:44.174Z,28.27
2023-02-14T12:30:15.244Z,26.87
2023-02-14T12:32:50.030Z,24.73
2023-02-14T12:35:19.149Z,22.97
2023-02-14T12:37:48.783Z,24.53
2023-02-14T12:40:22.898Z,24.10
2023-02-14T12:42:50.427Z,28.13
2023-02-14T12:45:24.152Z,26.13
2023-02-14T12:47:51.650Z,25.50
2023-02-14T12:50:28.157Z,23.97
2023-02-14T12:53:14.485Z,26.23
2023-02-14T12:55:47.424Z,26.73
2023-02-14T12:58:29.950Z,27.17
2023-02-14T13:00:57.643Z,28.53
2023-02-14T13:03:43.904Z,25.00
2023-02-14T13:06:17.730Z,28.87
2023-02-14T13:08:51.868Z,29.97
2023-02-14T13:11:22.218Z,22.87
2023-02-14T13:14:02.274Z,29.20
2023-02-14T13:16:32.691Z,28.77
2023-02-14T13:19:12.601Z,27.00
2023-02-14T13:21:41.738Z,26.40
2023-02-14T13:24:28.268Z,28.33
2023-02-14T13:27:00.262Z,25.43
2023-02-14T13:29:29.177Z,29.20
2023-02-14T13:32:02.528Z,23.47
2023-02-14T13:34:39.536Z,26.60
2023-02-14T13:37:08.449Z,30.40
2023-02-14T13:39:38.751Z,26.63
2023-02-14T13:42:07.304Z,25.20
2023-02-14T13:44:48.254Z,24.97
2023-02-14T13:47:20.714Z,26.53
2023-02-14T13:49:50.045Z,25.93
2023-02-14T13:52:36.303Z,24.10
2023-02-14T13:55:06.822Z,25.50
2023-02-14T13:57:35.693Z,24.23
2023-02-14T14:00:18.652Z,26.70
2023-02-14T14:02:52.067Z,27.87
2023-02-14T14:05:39.873Z,25.80
2023-02-14T14:08:22.840Z,30.17
2023-02-14T14:10:54.408Z,26.13
2023-02-14T14:13:40.943Z,25.00
2023-02-14T14:16:20.911Z,24.53
2023-02-14T14:18:49.068Z,28.37
2023-02-14T14:21:36.863Z,25.77
2023-02-14T14:24:16.444Z,23.10
2023-02-14T14:26:48.265Z,23.07
2023-02-14T14:29:18.963Z,25.97
2023-02-14T14:31:47.124Z,25.50
2023-02-14T14:34:19.166Z,26.73
2023-02-14T14:36:47.107Z,29.23
2023-02-14T14:39:26.066Z,26.67
2023-02-14T14:41:53.734Z,28.97
2023-02-14T14:44:21.421Z,25.03
2023-02-14T14:46:49.424Z,26.17
2023-02-14T14:49:17.686Z,24.93
2023-02-14T14:51:46.065Z,29.50
2023-02-14T14:54:13.520Z,24.20
2023-02-14T14:56:50.297Z,23.90
2023-02-14T14:59:17.876Z,24.70
2023-02-14T15:01:45.732Z,26.63
2023-02-14T15:04:17.760Z,25.63
2023-02-14T15:06:46.110Z,22.20
2023-02-14T15:09:14.998Z,24.13
2023-02-14T15:11:43.737Z,22.20
2023-02-14T15:14:13.997Z,21.00
2023-02-14T15:16:45.489Z,25.23
2023-02-14T15:19:35.038Z,27.37
2023-02-14T15:22:03.175Z,23.10
2023-02-14T15:24:31.285Z,20.53
2023-02-14T15:26:58.892Z,20.17
2023-02-14T15:29:31.595Z,20.43
2023-02-14T15:32:02.848Z,21.90
2023-02-14T15:34:33.072Z,22.20
2023-02-14T15:37:01.093Z,26.27
2023-02-14T15:39:37.543Z,20.63
2023-02-14T15:42:06.177Z,25.10
2023-02-14T15:44:33.886Z,23.67
2023-02-14T15:47:02.892Z,22.07
2023-02-14T15:49:37.988Z,22.43
2023-02-14T15:52:06.827Z,30.20
2023-02-14T15:54:37.679Z,22.63
2023-02-14T15:57:07.132Z,25.80
2023-02-14T15:59:35.766Z,25.67
2023-02-14T16:02:23.668Z,26.47
2023-02-14T16:04:51.354Z,23.57
2023-02-14T16:07:24.229Z,24.13
2023-02-14T16:10:11.869Z,26.90
2023-02-14T16:12:40.460Z,30.40
2023-02-14T16:15:17.365Z,28.40
2023-02-14T16:17:45.228Z,22.87
2023-02-14T16:20:21.812Z,27.97
2023-02-14T16:22:49.789Z,24.70
2023-02-14T16:25:17.493Z,25.00
2023-02-14T16:27:45.096Z,28.80
2023-02-14T16:30:16.601Z,24.60
2023-02-14T16:32:44.574Z,29.23
2023-02-14T16:35:18.499Z,24.10
2023-02-14T16:37:46.952Z,25.37
2023-02-14T16:40:15.007Z,28.70
2023-02-14T16:42:42.976Z,27.40
2023-02-14T16:45:19.767Z,29.17
2023-02-14T16:47:47.956Z,26.37
2023-02-14T16:50:15.654Z,29.07
2023-02-14T16:52:43.914Z,28.30
2023-02-14T16:55:15.745Z,30.40
2023-02-14T16:57:45.189Z,26.37
2023-02-14T17:00:13.082Z,24.87
2023-02-14T17:02:42.584Z,27.50
2023-02-14T17:05:11.591Z,26.93
2023-02-14T17:07:39.888Z,24.77
2023-02-14T17:10:10.835Z,23.33
2023-02-14T17:12:40.793Z,29.30
2023-02-14T17:15:14.306Z,30.50
2023-02-14T17:17:42.136Z,24.50
2023-02-14T17:20:09.880Z,28.30
2023-02-14T17:22:37.808Z,25.20
2023-02-14T17:25:05.982Z,28.03
2023-02-14T17:27:33.557Z,29.70
2023-02-14T17:30:01.331Z,27.33
2023-02-14T17:32:28.938Z,27.47
2023-02-14T17:34:56.501Z,25.50
2023-02-14T17:37:24.111Z,31.77
2023-02-14T17:39:53.076Z,27.40
2023-02-14T17:42:20.605Z,36.30
2023-02-14T17:44:48.127Z,27.50
2023-02-14T17:47:15.727Z,27.47
2023-02-14T17:49:43.238Z,28.53
2023-02-14T17:52:10.841Z,27.83
2023-02-14T17:54:38.504Z,27.40
2023-02-14T17:57:06.136Z,26.57
2023-02-14T17:59:33.930Z,27.83
2023-02-14T18:02:01.825Z,29.50
2023-02-14T18:04:29.376Z,32.00
2023-02-14T18:06:56.945Z,34.43
2023-02-14T18:09:24.482Z,29.53
2023-02-14T18:11:52.299Z,32.40
2023-02-14T18:14:19.848Z,26.13
2023-02-14T18:16:47.504Z,28.00
2023-02-14T18:19:15.223Z,27.97
2023-02-14T18:21:44.289Z,26.87
2023-02-14T18:24:12.398Z,32.13
2023-02-14T18:26:41.203Z,28.03
2023-02-14T18:29:08.844Z,27.23
2023-02-14T18:31:37.914Z,33.00
2023-02-14T18:34:05.562Z,32.10
2023-02-14T18:36:33.821Z,29.27
2023-02-14T18:39:01.366Z,34.93
2023-02-14T18:41:29.568Z,37.03
2023-02-14T18:43:57.266Z,26.10
2023-02-14T18:46:26.355Z,32.57
2023-02-14T18:48:54.352Z,30.67
2023-02-14T18:51:23.361Z,29.73
2023-02-14T18:53:51.386Z,33.23
2023-02-14T18:56:20.703Z,29.20
2023-02-14T18:58:49.239Z,31.97
2023-02-14T19:01:21.531Z,29.93
2023-02-14T19:03:50.360Z,31.73
2023-02-14T19:06:18.237Z,26.43
2023-02-14T19:08:46.197Z,25.63
2023-02-14T19:11:15.044Z,36.00
2023-02-14T19:13:46.395Z,28.17
2023-02-14T19:16:15.160Z,25.30
2023-02-14T19:18:42.838Z,25.90
2023-02-14T19:21:20.640Z,23.53
2023-02-14T19:23:48.564Z,26.23
2023-02-14T19:26:17.377Z,23.77
2023-02-14T19:28:45.545Z,24.23
2023-02-14T19:31:13.126Z,26.50
2023-02-14T19:33:42.130Z,25.40
2023-02-14T19:36:10.542Z,27.33
2023-02-14T19:38:38.293Z,24.80
2023-02-14T19:41:05.980Z,25.53
2023-02-14T19:43:33.596Z,26.07
2023-02-14T19:46:04.125Z,28.57
2023-02-14T19:48:31.799Z,26.73
2023-02-14T19:50:59.697Z,21.37
2023-02-14T19:53:27.720Z,26.60
2023-02-14T19:55:55.247Z,24.70
2023-02-14T19:58:22.813Z,25.57
2023-02-14T20:00:59.194Z,27.53
2023-02-14T20:03:27.631Z,25.60
2023-02-14T20:05:55.139Z,29.73
2023-02-14T20:08:22.741Z,27.27
2023-02-14T20:10:50.332Z,25.87
2023-02-14T20:13:18.094Z,27.57
2023-02-14T20:15:45.616Z,26.90
2023-02-14T20:18:13.291Z,24.90
2023-02-14T20:20:45.975Z,28.70
2023-02-14T20:23:13.601Z,23.60
2023-02-14T20:25:41.116Z,27.13
2023-02-14T20:28:09.652Z,29.63
2023-02-14T20:30:39.510Z,28.40
2023-02-14T20:33:07.134Z,25.90
2023-02-14T20:35:34.715Z,27.57
2023-02-14T20:38:02.260Z,24.93
2023-02-14T20:40:29.786Z,27.67
2023-02-14T20:42:57.379Z,27.50
2023-02-14T20:45:24.924Z,25.90
2023-02-14T20:47:52.501Z,23.00
2023-02-14T20:50:20.004Z,26.73
2023-02-14T20:52:47.582Z,25.03
2023-02-14T20:55:15.089Z,28.70
2023-02-14T20:57:42.749Z,28.83
2023-02-14T21:00:10.465Z,28.00
2023-02-14T21:02:38.026Z,28.43
2023-02-14T21:05:05.665Z,29.63
2023-02-14T21:07:33.335Z,28.20
2023-02-14T21:10:00.879Z,29.83
2023-02-14T21:12:28.516Z,29.67
2023-02-14T21:14:56.108Z,32.17
2023-02-14T21:17:23.676Z,27.07
2023-02-14T21:19:51.238Z,25.47
2023-02-14T21:22:18.822Z,28.17
2023-02-14T21:24:46.394Z,25.33
2023-02-14T21:27:13.969Z,27.43
2023-02-14T21:29:41.498Z,23.63
2023-02-14T21:32:09.054Z,28.00
2023-02-14T21:34:36.651Z,31.43
2023-02-14T21:37:04.275Z,25.23
2023-02-14T21:39:32.836Z,27.07
2023-02-14T21:42:00.426Z,28.23
2023-02-14T21:44:27.933Z,29.90
2023-02-14T21:46:55.510Z,27.87
2023-02-14T21:49:22.995Z,25.73
2023-02-14T21:51:50.533Z,29.17
2023-02-14T21:54:18.122Z,31.03
2023-02-14T21:56:45.897Z,30.63
2023-02-14T21:59:13.417Z,26.40
2023-02-14T22:01:42.594Z,31.80
2023-02-14T22:04:11.626Z,29.53
2023-02-14T22:06:40.328Z,30.27
2023-02-14T22:09:07.955Z,28.67
2023-02-14T22:11:35.927Z,32.50
2023-02-14T22:14:03.542Z,31.17
2023-02-14T22:16:31.204Z,27.20
2023-02-14T22:18:58.729Z,31.70
2023-02-14T22:21:26.975Z,26.90
2023-02-14T22:23:55.569Z,27.63
2023-02-14T22:26:24.539Z,32.47
2023-02-14T22:28:53.053Z,33.40
2023-02-14T22:31:20.937Z,32.10
2023-02-14T22:33:49.242Z,30.30
2023-02-14T22:36:17.214Z,33.03
2023-02-14T22:38:45.013Z,31.20
2023-02-14T22:41:19.909Z,29.40
2023-02-14T22:43:47.760Z,30.13
2023-02-14T22:46:16.524Z,28.93
2023-02-14T22:48:44.893Z,30.70
2023-02-14T22:51:21.631Z,30.53
2023-02-14T22:53:49.627Z,28.93
2023-02-14T22:56:18.754Z,30.23
2023-02-14T22:58:46.374Z,33.40
2023-02-14T23:01:17.924Z,30.43
2023-02-14T23:03:47.392Z,29.27
2023-02-14T23:06:15.424Z,30.70
2023-02-14T23:08:43.849Z,32.60
2023-02-14T23:11:15.936Z,31.33
2023-02-14T23:13:43.579Z,35.03
2023-02-14T23:16:11.150Z,34.63
2023-02-14T23:18:38.746Z,34.60
2023-02-14T23:21:12.522Z,33.93
2023-02-14T23:23:40.088Z,31.73
2023-02-14T23:26:07.630Z,35.00
2023-02-14T23:28:35.303Z,28.80
2023-02-14T23:31:03.365Z,34.07
2023-02-14T23:33:30.919Z,32.00
2023-02-14T23:36:02.403Z,33.63
2023-02-14T23:38:30.168Z,34.13
2023-02-14T23:40:57.695Z,36.00
2023-02-14T23:43:25.240Z,33.00
2023-02-14T23:45:52.823Z,37.00
2023-02-14T23:48:20.411Z,36.23
2023-02-14T23:50:47.913Z,32.47
2023-02-14T23:53:15.460Z,36.30
2023-02-14T23:55:42.932Z,37.10
2023-02-14T23:58:10.511Z,33.40
